PIMOHWEATHER Station Historical Data
Daily Summary for October 27, 2020 Units:  Metric    English   Both
Daily Weekly Monthly Yearly
  High: Low: Average:
Temperature: 33.0 °C 26.0 °C 29.2 °C
Dew Point: 25.0 °C 22.0 °C 23.1 °C
Humidity: 79% 60% 70%
Wind Speed: 34km/h 2km/h 13.9km/h
Wind Gust: 44km/h - -
Wind- - SW
Pressure: 1013.6 hPa 1007.6 hPa -
Precipitation: 0.00 mm    
 
 
Tabular Data for October 27, 2020
Time Temperature Dew Point Pressure Wind Wind Speed Wind Gust Humidity Rainfall Rate (Hourly) solar
00:04 27.0 °C 23.0 °C 1008.5 hPa SW 20 km/h 32 km/h 75% 0.00 mm 0.00 W/m2
00:09 27.0 °C 23.0 °C 1008.6 hPa WSW 21 km/h 28 km/h 75% 0.00 mm 0.00 W/m2
00:14 27.0 °C 23.0 °C 1008.6 hPa SW 12 km/h 20 km/h 75% 0.00 mm 0.00 W/m2
00:19 27.0 °C 22.0 °C 1008.4 hPa West 21 km/h 24 km/h 75% 0.00 mm 0.00 W/m2
00:24 27.0 °C 22.0 °C 1008.5 hPa SW 13 km/h 20 km/h 75% 0.00 mm 0.00 W/m2
00:29 27.0 °C 22.0 °C 1008.5 hPa SW 13 km/h 16 km/h 75% 0.00 mm 0.00 W/m2
00:34 27.0 °C 22.0 °C 1008.5 hPa SW 14 km/h 20 km/h 75% 0.00 mm 0.00 W/m2
00:39 27.0 °C 23.0 °C 1008.4 hPa SW 22 km/h 32 km/h 76% 0.00 mm 0.00 W/m2
00:44 27.0 °C 23.0 °C 1008.4 hPa SSE 15 km/h 28 km/h 76% 0.00 mm 0.00 W/m2
00:49 27.0 °C 23.0 °C 1008.3 hPa WNW 13 km/h 24 km/h 77% 0.00 mm 0.00 W/m2
00:54 27.0 °C 23.0 °C 1008.2 hPa WSW 15 km/h 20 km/h 77% 0.00 mm 0.00 W/m2
00:59 27.0 °C 23.0 °C 1008.2 hPa WSW 15 km/h 24 km/h 78% 0.00 mm 0.00 W/m2
01:04 27.0 °C 23.0 °C 1008.4 hPa SSW 20 km/h 28 km/h 78% 0.00 mm 0.00 W/m2
01:09 26.0 °C 23.0 °C 1008.3 hPa NNW 14 km/h 20 km/h 79% 0.00 mm 0.00 W/m2
01:14 26.0 °C 23.0 °C 1008.3 hPa WNW 19 km/h 32 km/h 79% 0.00 mm 0.00 W/m2
01:19 26.0 °C 22.0 °C 1008.3 hPa SSW 17 km/h 24 km/h 79% 0.00 mm 0.00 W/m2
01:24 26.0 °C 22.0 °C 1008.3 hPa SW 14 km/h 24 km/h 79% 0.00 mm 0.00 W/m2
01:29 26.0 °C 22.0 °C 1008.1 hPa West 17 km/h 28 km/h 78% 0.00 mm 0.00 W/m2
01:34 26.0 °C 22.0 °C 1007.8 hPa WSW 17 km/h 36 km/h 77% 0.00 mm 0.00 W/m2
01:39 26.0 °C 22.0 °C 1007.9 hPa NW 11 km/h 20 km/h 78% 0.00 mm 0.00 W/m2
01:44 26.0 °C 22.0 °C 1007.9 hPa SE 9 km/h 12 km/h 77% 0.00 mm 0.00 W/m2
01:49 26.0 °C 22.0 °C 1007.8 hPa WSW 8 km/h 12 km/h 77% 0.00 mm 0.00 W/m2
01:54 26.0 °C 22.0 °C 1007.9 hPa West 11 km/h 16 km/h 77% 0.00 mm 0.00 W/m2
01:59 26.0 °C 22.0 °C 1007.9 hPa SW 11 km/h 16 km/h 77% 0.00 mm 0.00 W/m2
02:04 26.0 °C 22.0 °C 1007.7 hPa West 10 km/h 16 km/h 77% 0.00 mm 0.00 W/m2
02:09 26.0 °C 22.0 °C 1007.7 hPa WSW 15 km/h 20 km/h 76% 0.00 mm 0.00 W/m2
02:14 26.0 °C 22.0 °C 1007.6 hPa ESE 13 km/h 20 km/h 76% 0.00 mm 0.00 W/m2
02:19 26.0 °C 22.0 °C 1007.6 hPa SW 9 km/h 12 km/h 76% 0.00 mm 0.00 W/m2
02:24 26.0 °C 22.0 °C 1007.6 hPa SW 12 km/h 16 km/h 76% 0.00 mm 0.00 W/m2
02:29 26.0 °C 22.0 °C 1007.8 hPa WSW 15 km/h 20 km/h 76% 0.00 mm 0.00 W/m2
02:34 26.0 °C 22.0 °C 1007.8 hPa WSW 10 km/h 12 km/h 76% 0.00 mm 0.00 W/m2
02:39 26.0 °C 22.0 °C 1007.9 hPa WSW 12 km/h 20 km/h 76% 0.00 mm 0.00 W/m2
02:44 26.0 °C 22.0 °C 1007.8 hPa SW 12 km/h 16 km/h 76% 0.00 mm 0.00 W/m2
02:49 27.0 °C 22.0 °C 1007.9 hPa WNW 12 km/h 20 km/h 76% 0.00 mm 0.00 W/m2
02:54 27.0 °C 22.0 °C 1007.9 hPa SW 15 km/h 20 km/h 76% 0.00 mm 0.00 W/m2
02:59 26.0 °C 22.0 °C 1007.9 hPa WSW 13 km/h 24 km/h 76% 0.00 mm 0.00 W/m2
03:04 26.0 °C 22.0 °C 1008.0 hPa East 12 km/h 28 km/h 76% 0.00 mm 0.00 W/m2
03:09 26.0 °C 22.0 °C 1008.0 hPa SW 12 km/h 28 km/h 76% 0.00 mm 0.00 W/m2
03:14 26.0 °C 22.0 °C 1007.9 hPa NE 15 km/h 24 km/h 76% 0.00 mm 0.00 W/m2
03:19 26.0 °C 22.0 °C 1007.8 hPa WSW 10 km/h 16 km/h 77% 0.00 mm 0.00 W/m2
03:24 26.0 °C 22.0 °C 1007.8 hPa WSW 12 km/h 20 km/h 77% 0.00 mm 0.00 W/m2
03:29 26.0 °C 22.0 °C 1007.7 hPa WSW 15 km/h 20 km/h 77% 0.00 mm 0.00 W/m2
03:34 26.0 °C 22.0 °C 1007.6 hPa SSE 12 km/h 20 km/h 76% 0.00 mm 0.00 W/m2
03:39 26.0 °C 22.0 °C 1007.8 hPa WSW 9 km/h 16 km/h 76% 0.00 mm 0.00 W/m2
03:44 26.0 °C 22.0 °C 1007.9 hPa SW 15 km/h 20 km/h 76% 0.00 mm 0.00 W/m2
03:49 26.0 °C 22.0 °C 1007.9 hPa SW 12 km/h 20 km/h 76% 0.00 mm 0.00 W/m2
03:54 26.0 °C 22.0 °C 1007.9 hPa West 7 km/h 12 km/h 76% 0.00 mm 0.00 W/m2
03:59 26.0 °C 22.0 °C 1007.9 hPa WSW 10 km/h 16 km/h 76% 0.00 mm 0.00 W/m2
04:04 26.0 °C 22.0 °C 1007.8 hPa WSW 14 km/h 20 km/h 76% 0.00 mm 0.00 W/m2
04:09 26.0 °C 22.0 °C 1008.0 hPa West 8 km/h 12 km/h 76% 0.00 mm 0.00 W/m2
04:14 26.0 °C 22.0 °C 1008.0 hPa West 7 km/h 12 km/h 76% 0.00 mm 0.00 W/m2
04:19 26.0 °C 22.0 °C 1007.9 hPa West 10 km/h 16 km/h 76% 0.00 mm 0.00 W/m2
04:24 26.0 °C 22.0 °C 1008.0 hPa WNW 6 km/h 8 km/h 76% 0.00 mm 0.00 W/m2
04:29 26.0 °C 22.0 °C 1007.8 hPa SW 8 km/h 12 km/h 76% 0.00 mm 0.00 W/m2
04:34 27.0 °C 22.0 °C 1007.9 hPa WNW 11 km/h 12 km/h 75% 0.00 mm 0.00 W/m2
04:39 27.0 °C 22.0 °C 1007.9 hPa SW 8 km/h 8 km/h 75% 0.00 mm 0.00 W/m2
04:44 27.0 °C 22.0 °C 1008.1 hPa WSW 9 km/h 12 km/h 75% 0.00 mm 0.00 W/m2
04:49 27.0 °C 22.0 °C 1007.9 hPa WNW 9 km/h 12 km/h 76% 0.00 mm 0.00 W/m2
04:54 27.0 °C 22.0 °C 1008.2 hPa WNW 13 km/h 20 km/h 76% 0.00 mm 0.00 W/m2
04:59 27.0 °C 22.0 °C 1008.2 hPa WSW 15 km/h 24 km/h 75% 0.00 mm 0.00 W/m2
05:00 27.0 °C 22.0 °C 1008.0 hPa WNW 2 km/h 4 km/h 75% 0.00 mm 0.00 W/m2
07:24 28.0 °C 22.0 °C 1010.2 hPa WSW 10 km/h 16 km/h 72% 0.00 mm 117.44 W/m2
07:29 28.0 °C 23.0 °C 1010.3 hPa East 15 km/h 20 km/h 72% 0.00 mm 133.59 W/m2
07:34 28.0 °C 22.0 °C 1010.3 hPa SSE 13 km/h 20 km/h 71% 0.00 mm 141.78 W/m2
07:39 28.0 °C 22.0 °C 1010.4 hPa WSW 19 km/h 24 km/h 71% 0.00 mm 134.81 W/m2
07:44 28.0 °C 23.0 °C 1010.3 hPa SE 29 km/h 40 km/h 71% 0.00 mm 149.12 W/m2
07:49 28.0 °C 22.0 °C 1010.4 hPa South 11 km/h 16 km/h 70% 0.00 mm 153.53 W/m2
07:54 29.0 °C 22.0 °C 1010.3 hPa West 10 km/h 16 km/h 70% 0.00 mm 157.81 W/m2
07:59 29.0 °C 23.0 °C 1010.5 hPa SW 21 km/h 28 km/h 69% 0.00 mm 200.39 W/m2
08:04 29.0 °C 23.0 °C 1010.6 hPa WNW 14 km/h 20 km/h 69% 0.00 mm 433.31 W/m2
08:09 30.0 °C 23.0 °C 1010.6 hPa SW 18 km/h 32 km/h 68% 0.00 mm 439.43 W/m2
08:14 30.0 °C 23.0 °C 1010.6 hPa South 18 km/h 28 km/h 67% 0.00 mm 363.09 W/m2
08:19 30.0 °C 23.0 °C 1010.8 hPa WSW 15 km/h 20 km/h 67% 0.00 mm 568.62 W/m2
08:24 31.0 °C 23.0 °C 1010.9 hPa WSW 18 km/h 28 km/h 66% 0.00 mm 586.48 W/m2
08:29 31.0 °C 23.0 °C 1010.9 hPa WSW 14 km/h 20 km/h 66% 0.00 mm 541.33 W/m2
08:34 30.0 °C 23.0 °C 1011.1 hPa SSW 18 km/h 24 km/h 66% 0.00 mm 445.06 W/m2
08:39 30.0 °C 23.0 °C 1011.1 hPa WNW 14 km/h 24 km/h 66% 0.00 mm 285.41 W/m2
08:44 30.0 °C 23.0 °C 1011.3 hPa WSW 24 km/h 32 km/h 66% 0.00 mm 373.86 W/m2
08:49 30.0 °C 23.0 °C 1011.3 hPa ENE 21 km/h 36 km/h 66% 0.00 mm 758.73 W/m2
08:54 30.0 °C 23.0 °C 1011.4 hPa SSW 20 km/h 28 km/h 66% 0.00 mm 887.55 W/m2
08:59 30.0 °C 23.0 °C 1011.4 hPa NW 16 km/h 24 km/h 66% 0.00 mm 719.21 W/m2
09:04 31.0 °C 23.0 °C 1011.4 hPa SSW 18 km/h 32 km/h 66% 0.00 mm 790.29 W/m2
09:09 31.0 °C 23.0 °C 1011.5 hPa SW 20 km/h 24 km/h 67% 0.00 mm 248.95 W/m2
09:14 30.0 °C 23.0 °C 1011.4 hPa SW 13 km/h 16 km/h 67% 0.00 mm 235.00 W/m2
09:19 30.0 °C 23.0 °C 1011.7 hPa SW 14 km/h 16 km/h 67% 0.00 mm 275.86 W/m2
09:24 30.0 °C 23.0 °C 1011.5 hPa SW 21 km/h 32 km/h 66% 0.00 mm 568.25 W/m2
09:29 30.0 °C 23.0 °C 1011.5 hPa SSW 16 km/h 24 km/h 66% 0.00 mm 528.37 W/m2
09:34 31.0 °C 23.0 °C 1011.6 hPa SW 17 km/h 24 km/h 65% 0.00 mm 693.16 W/m2
09:39 31.0 °C 23.0 °C 1011.5 hPa SSW 12 km/h 16 km/h 65% 0.00 mm 917.03 W/m2
09:44 31.0 °C 24.0 °C 1011.5 hPa WNW 15 km/h 24 km/h 64% 0.00 mm 556.14 W/m2
09:49 32.0 °C 24.0 °C 1011.4 hPa SSW 19 km/h 24 km/h 64% 0.00 mm 1031.54 W/m2
09:54 32.0 °C 24.0 °C 1011.4 hPa SW 26 km/h 32 km/h 64% 0.00 mm 681.04 W/m2
09:59 31.0 °C 24.0 °C 1011.5 hPa SW 14 km/h 20 km/h 64% 0.00 mm 805.58 W/m2
10:04 31.0 °C 24.0 °C 1011.5 hPa WSW 20 km/h 24 km/h 65% 0.00 mm 353.55 W/m2
10:09 31.0 °C 23.0 °C 1011.7 hPa South 18 km/h 32 km/h 66% 0.00 mm 1099.68 W/m2
10:14 31.0 °C 24.0 °C 1011.6 hPa SW 20 km/h 24 km/h 65% 0.00 mm 704.04 W/m2
10:19 31.0 °C 24.0 °C 1011.5 hPa WSW 13 km/h 24 km/h 66% 0.00 mm 543.05 W/m2
10:24 31.0 °C 24.0 °C 1011.2 hPa West 15 km/h 24 km/h 66% 0.00 mm 806.44 W/m2
10:29 31.0 °C 24.0 °C 1011.1 hPa South 15 km/h 24 km/h 65% 0.00 mm 851.95 W/m2
10:34 31.0 °C 24.0 °C 1011.0 hPa SW 13 km/h 20 km/h 64% 0.00 mm 469.28 W/m2
10:39 32.0 °C 23.0 °C 1010.9 hPa SW 15 km/h 28 km/h 62% 0.00 mm 462.43 W/m2
10:44 31.0 °C 23.0 °C 1010.9 hPa West 13 km/h 20 km/h 63% 0.00 mm 419.00 W/m2
10:49 31.0 °C 23.0 °C 1010.9 hPa West 15 km/h 24 km/h 63% 0.00 mm 442.86 W/m2
10:54 31.0 °C 23.0 °C 1010.8 hPa WNW 13 km/h 20 km/h 63% 0.00 mm 415.08 W/m2
10:59 31.0 °C 23.0 °C 1010.7 hPa West 13 km/h 16 km/h 63% 0.00 mm 370.80 W/m2
11:04 31.0 °C 23.0 °C 1010.7 hPa South 18 km/h 28 km/h 63% 0.00 mm 371.78 W/m2
11:09 31.0 °C 23.0 °C 1010.9 hPa West 17 km/h 24 km/h 64% 0.00 mm 392.94 W/m2
11:14 31.0 °C 23.0 °C 1010.8 hPa SW 12 km/h 20 km/h 63% 0.00 mm 406.40 W/m2
11:19 32.0 °C 24.0 °C 1010.9 hPa SW 15 km/h 20 km/h 63% 0.00 mm 413.37 W/m2
11:24 31.0 °C 24.0 °C 1010.8 hPa SW 18 km/h 32 km/h 64% 0.00 mm 426.34 W/m2
11:29 31.0 °C 24.0 °C 1010.5 hPa West 9 km/h 12 km/h 64% 0.00 mm 521.40 W/m2
11:34 32.0 °C 24.0 °C 1010.4 hPa NW 13 km/h 16 km/h 63% 0.00 mm 468.91 W/m2
11:39 32.0 °C 24.0 °C 1010.5 hPa WSW 15 km/h 24 km/h 64% 0.00 mm 385.60 W/m2
11:44 31.0 °C 24.0 °C 1010.5 hPa East 16 km/h 24 km/h 65% 0.00 mm 325.29 W/m2
11:49 31.0 °C 24.0 °C 1010.6 hPa SW 12 km/h 16 km/h 65% 0.00 mm 329.20 W/m2
11:54 31.0 °C 24.0 °C 1010.5 hPa WSW 15 km/h 20 km/h 64% 0.00 mm 316.61 W/m2
11:59 31.0 °C 24.0 °C 1010.5 hPa WSW 13 km/h 16 km/h 64% 0.00 mm 323.09 W/m2
12:04 31.0 °C 24.0 °C 1010.3 hPa SSW 12 km/h 16 km/h 65% 0.00 mm 349.15 W/m2
12:09 31.0 °C 24.0 °C 1010.2 hPa SW 20 km/h 28 km/h 66% 0.00 mm 366.03 W/m2
12:14 31.0 °C 24.0 °C 1010.2 hPa SSW 13 km/h 28 km/h 65% 0.00 mm 423.28 W/m2
12:19 31.0 °C 24.0 °C 1010.2 hPa SW 20 km/h 32 km/h 65% 0.00 mm 634.19 W/m2
12:24 32.0 °C 24.0 °C 1010.2 hPa SSW 17 km/h 20 km/h 65% 0.00 mm 521.40 W/m2
12:29 32.0 °C 24.0 °C 1010.1 hPa WSW 10 km/h 12 km/h 65% 0.00 mm 362.60 W/m2
12:34 32.0 °C 24.0 °C 1010.2 hPa WSW 10 km/h 16 km/h 65% 0.00 mm 364.32 W/m2
12:39 31.0 °C 24.0 °C 1010.0 hPa SW 10 km/h 20 km/h 65% 0.00 mm 343.52 W/m2
12:44 31.0 °C 24.0 °C 1010.0 hPa SSW 20 km/h 24 km/h 65% 0.00 mm 494.97 W/m2
12:49 32.0 °C 24.0 °C 1009.9 hPa SW 12 km/h 20 km/h 65% 0.00 mm 521.76 W/m2
12:54 32.0 °C 24.0 °C 1009.8 hPa SW 23 km/h 28 km/h 64% 0.00 mm 702.70 W/m2
12:59 32.0 °C 24.0 °C 1009.7 hPa SSW 18 km/h 28 km/h 64% 0.00 mm 464.14 W/m2
13:04 32.0 °C 24.0 °C 1009.6 hPa SW 19 km/h 32 km/h 65% 0.00 mm 417.28 W/m2
13:09 31.0 °C 24.0 °C 1009.7 hPa WSW 16 km/h 20 km/h 65% 0.00 mm 474.05 W/m2
13:14 32.0 °C 24.0 °C 1009.7 hPa SSW 17 km/h 24 km/h 65% 0.00 mm 555.65 W/m2
13:19 32.0 °C 25.0 °C 1009.5 hPa SW 23 km/h 28 km/h 65% 0.00 mm 504.51 W/m2
13:24 32.0 °C 24.0 °C 1009.4 hPa SW 25 km/h 36 km/h 66% 0.00 mm 557.85 W/m2
13:29 31.0 °C 24.0 °C 1009.3 hPa SSW 18 km/h 24 km/h 66% 0.00 mm 742.21 W/m2
13:34 32.0 °C 24.0 °C 1009.2 hPa West 13 km/h 24 km/h 65% 0.00 mm 850.60 W/m2
13:39 32.0 °C 24.0 °C 1009.3 hPa SW 18 km/h 20 km/h 63% 0.00 mm 844.97 W/m2
13:44 33.0 °C 24.0 °C 1009.3 hPa WSW 20 km/h 36 km/h 63% 0.00 mm 815.98 W/m2
13:49 33.0 °C 24.0 °C 1009.1 hPa WSW 15 km/h 20 km/h 60% 0.00 mm 807.66 W/m2
13:54 33.0 °C 24.0 °C 1009.2 hPa SW 34 km/h 40 km/h 61% 0.00 mm 852.80 W/m2
13:59 32.0 °C 24.0 °C 1009.2 hPa South 13 km/h 32 km/h 62% 0.00 mm 744.78 W/m2
14:04 32.0 °C 24.0 °C 1009.1 hPa NNW 25 km/h 44 km/h 63% 0.00 mm 544.76 W/m2
14:09 31.0 °C 24.0 °C 1009.3 hPa SSW 18 km/h 28 km/h 64% 0.00 mm 411.17 W/m2
14:14 32.0 °C 24.0 °C 1009.4 hPa SW 19 km/h 36 km/h 64% 0.00 mm 486.28 W/m2
14:19 32.0 °C 24.0 °C 1009.3 hPa SW 14 km/h 20 km/h 64% 0.00 mm 322.72 W/m2
14:24 31.0 °C 24.0 °C 1009.3 hPa SW 18 km/h 32 km/h 65% 0.00 mm 400.40 W/m2
14:29 31.0 °C 24.0 °C 1009.3 hPa SW 20 km/h 24 km/h 64% 0.00 mm 592.47 W/m2
14:34 31.0 °C 24.0 °C 1009.3 hPa SSW 15 km/h 20 km/h 64% 0.00 mm 334.47 W/m2
14:39 31.0 °C 24.0 °C 1009.2 hPa SW 17 km/h 24 km/h 64% 0.00 mm 327.86 W/m2
14:44 32.0 °C 24.0 °C 1009.3 hPa East 13 km/h 28 km/h 64% 0.00 mm 271.10 W/m2
14:49 32.0 °C 24.0 °C 1009.3 hPa WSW 21 km/h 28 km/h 64% 0.00 mm 215.07 W/m2
14:54 32.0 °C 24.0 °C 1009.3 hPa SW 17 km/h 24 km/h 65% 0.00 mm 182.53 W/m2
14:59 31.0 °C 24.0 °C 1009.1 hPa SW 14 km/h 24 km/h 65% 0.00 mm 164.78 W/m2
15:04 31.0 °C 24.0 °C 1009.1 hPa WSW 16 km/h 20 km/h 66% 0.00 mm 148.27 W/m2
15:09 31.0 °C 24.0 °C 1009.3 hPa SE 15 km/h 20 km/h 66% 0.00 mm 176.04 W/m2
15:14 31.0 °C 24.0 °C 1009.1 hPa West 10 km/h 12 km/h 66% 0.00 mm 206.38 W/m2
15:19 31.0 °C 24.0 °C 1009.2 hPa SW 19 km/h 28 km/h 65% 0.00 mm 207.73 W/m2
15:24 32.0 °C 24.0 °C 1009.2 hPa East 21 km/h 36 km/h 65% 0.00 mm 184.73 W/m2
15:29 31.0 °C 24.0 °C 1009.1 hPa NW 9 km/h 12 km/h 65% 0.00 mm 166.99 W/m2
15:34 31.0 °C 24.0 °C 1009.1 hPa WNW 15 km/h 20 km/h 64% 0.00 mm 165.27 W/m2
15:39 32.0 °C 24.0 °C 1009.0 hPa SSW 18 km/h 24 km/h 64% 0.00 mm 163.93 W/m2
15:44 32.0 °C 24.0 °C 1009.0 hPa South 16 km/h 24 km/h 63% 0.00 mm 153.90 W/m2
15:49 32.0 °C 24.0 °C 1009.2 hPa SW 10 km/h 20 km/h 63% 0.00 mm 141.42 W/m2
15:54 31.0 °C 24.0 °C 1009.2 hPa West 14 km/h 20 km/h 64% 0.00 mm 126.12 W/m2
15:59 31.0 °C 24.0 °C 1009.3 hPa SW 17 km/h 24 km/h 64% 0.00 mm 112.30 W/m2
16:04 31.0 °C 24.0 °C 1009.3 hPa West 10 km/h 16 km/h 64% 0.00 mm 108.39 W/m2
16:09 31.0 °C 24.0 °C 1009.3 hPa SW 15 km/h 24 km/h 65% 0.00 mm 93.58 W/m2
16:14 31.0 °C 23.0 °C 1009.6 hPa West 11 km/h 16 km/h 65% 0.00 mm 89.31 W/m2
16:19 31.0 °C 23.0 °C 1009.5 hPa WSW 12 km/h 20 km/h 65% 0.00 mm 83.68 W/m2
16:24 31.0 °C 24.0 °C 1009.7 hPa WSW 11 km/h 12 km/h 66% 0.00 mm 79.76 W/m2
16:29 31.0 °C 24.0 °C 1009.8 hPa SW 12 km/h 16 km/h 66% 0.00 mm 68.02 W/m2
16:34 31.0 °C 23.0 °C 1009.9 hPa SW 20 km/h 24 km/h 66% 0.00 mm 59.82 W/m2
16:39 30.0 °C 23.0 °C 1010.0 hPa SW 16 km/h 20 km/h 67% 0.00 mm 51.14 W/m2
16:44 30.0 °C 24.0 °C 1010.3 hPa SSW 18 km/h 28 km/h 68% 0.00 mm 43.31 W/m2
16:49 30.0 °C 23.0 °C 1010.3 hPa South 13 km/h 16 km/h 68% 0.00 mm 36.33 W/m2
16:54 30.0 °C 24.0 °C 1010.4 hPa SW 18 km/h 24 km/h 69% 0.00 mm 30.70 W/m2
16:59 30.0 °C 24.0 °C 1010.3 hPa SSW 13 km/h 20 km/h 70% 0.00 mm 27.28 W/m2
17:04 30.0 °C 24.0 °C 1010.4 hPa WSW 7 km/h 8 km/h 70% 0.00 mm 18.11 W/m2
17:09 30.0 °C 24.0 °C 1010.5 hPa SW 8 km/h 16 km/h 70% 0.00 mm 13.82 W/m2
17:14 30.0 °C 24.0 °C 1010.6 hPa WSW 9 km/h 12 km/h 71% 0.00 mm 10.39 W/m2
17:19 29.0 °C 24.0 °C 1010.6 hPa WSW 9 km/h 12 km/h 71% 0.00 mm 7.34 W/m2
17:24 29.0 °C 24.0 °C 1010.7 hPa WNW 8 km/h 12 km/h 71% 0.00 mm 3.79 W/m2
17:29 29.0 °C 24.0 °C 1011.0 hPa WSW 10 km/h 16 km/h 71% 0.00 mm 2.08 W/m2
17:34 29.0 °C 23.0 °C 1011.1 hPa SW 10 km/h 16 km/h 71% 0.00 mm 0.36 W/m2
17:39 29.0 °C 23.0 °C 1011.1 hPa WNW 10 km/h 16 km/h 71% 0.00 mm 0.00 W/m2
17:44 29.0 °C 23.0 °C 1011.1 hPa WNW 15 km/h 20 km/h 71% 0.00 mm 0.00 W/m2
17:49 29.0 °C 23.0 °C 1011.2 hPa WSW 10 km/h 16 km/h 71% 0.00 mm 0.00 W/m2
17:54 29.0 °C 23.0 °C 1011.2 hPa NW 5 km/h 8 km/h 71% 0.00 mm 0.00 W/m2
17:59 29.0 °C 23.0 °C 1011.2 hPa NE 10 km/h 16 km/h 71% 0.00 mm 0.00 W/m2
18:04 29.0 °C 23.0 °C 1011.3 hPa SW 14 km/h 16 km/h 71% 0.00 mm 0.00 W/m2
18:09 29.0 °C 23.0 °C 1011.3 hPa WNW 6 km/h 12 km/h 71% 0.00 mm 0.00 W/m2
18:14 29.0 °C 23.0 °C 1011.4 hPa South 10 km/h 12 km/h 71% 0.00 mm 0.00 W/m2
18:19 29.0 °C 23.0 °C 1011.4 hPa West 14 km/h 16 km/h 71% 0.00 mm 0.00 W/m2
18:24 29.0 °C 23.0 °C 1011.6 hPa SW 12 km/h 20 km/h 71% 0.00 mm 0.00 W/m2
18:29 29.0 °C 23.0 °C 1011.6 hPa West 9 km/h 12 km/h 71% 0.00 mm 0.00 W/m2
18:34 29.0 °C 23.0 °C 1011.7 hPa WSW 12 km/h 20 km/h 71% 0.00 mm 0.00 W/m2
18:39 29.0 °C 23.0 °C 1011.8 hPa WSW 14 km/h 16 km/h 71% 0.00 mm 0.00 W/m2
18:44 29.0 °C 23.0 °C 1011.9 hPa SW 14 km/h 16 km/h 71% 0.00 mm 0.00 W/m2
18:49 29.0 °C 23.0 °C 1012.1 hPa SW 14 km/h 24 km/h 71% 0.00 mm 0.00 W/m2
18:54 29.0 °C 23.0 °C 1012.1 hPa SW 19 km/h 28 km/h 71% 0.00 mm 0.00 W/m2
18:59 29.0 °C 23.0 °C 1012.1 hPa SSW 19 km/h 24 km/h 71% 0.00 mm 0.00 W/m2
19:04 29.0 °C 23.0 °C 1012.3 hPa SW 15 km/h 20 km/h 71% 0.00 mm 0.00 W/m2
19:09 29.0 °C 23.0 °C 1012.3 hPa SW 18 km/h 24 km/h 70% 0.00 mm 0.00 W/m2
19:14 29.0 °C 23.0 °C 1012.5 hPa South 14 km/h 20 km/h 70% 0.00 mm 0.00 W/m2
19:19 29.0 °C 23.0 °C 1012.4 hPa SW 13 km/h 16 km/h 71% 0.00 mm 0.00 W/m2
19:24 29.0 °C 23.0 °C 1012.6 hPa SW 14 km/h 20 km/h 71% 0.00 mm 0.00 W/m2
19:29 29.0 °C 23.0 °C 1012.4 hPa WSW 13 km/h 20 km/h 71% 0.00 mm 0.00 W/m2
19:34 29.0 °C 23.0 °C 1012.6 hPa WSW 13 km/h 20 km/h 72% 0.00 mm 0.00 W/m2
19:39 29.0 °C 23.0 °C 1012.7 hPa WSW 12 km/h 16 km/h 73% 0.00 mm 0.00 W/m2
19:44 29.0 °C 23.0 °C 1012.7 hPa NNE 8 km/h 12 km/h 73% 0.00 mm 0.00 W/m2
19:49 28.0 °C 23.0 °C 1012.5 hPa WSW 9 km/h 16 km/h 74% 0.00 mm 0.00 W/m2
19:54 28.0 °C 23.0 °C 1012.5 hPa WSW 12 km/h 16 km/h 74% 0.00 mm 0.00 W/m2
19:59 28.0 °C 23.0 °C 1012.6 hPa SW 11 km/h 16 km/h 74% 0.00 mm 0.00 W/m2
20:04 28.0 °C 23.0 °C 1012.6 hPa West 10 km/h 16 km/h 74% 0.00 mm 0.00 W/m2
20:09 28.0 °C 23.0 °C 1012.6 hPa West 8 km/h 12 km/h 74% 0.00 mm 0.00 W/m2
20:14 28.0 °C 23.0 °C 1012.8 hPa West 5 km/h 8 km/h 74% 0.00 mm 0.00 W/m2
20:19 28.0 °C 23.0 °C 1012.9 hPa WNW 5 km/h 8 km/h 74% 0.00 mm 0.00 W/m2
20:24 28.0 °C 23.0 °C 1013.0 hPa WNW 4 km/h 4 km/h 74% 0.00 mm 0.00 W/m2
20:29 28.0 °C 23.0 °C 1013.1 hPa North 10 km/h 12 km/h 74% 0.00 mm 0.00 W/m2
20:34 28.0 °C 23.0 °C 1013.2 hPa WNW 13 km/h 20 km/h 73% 0.00 mm 0.00 W/m2
20:39 28.0 °C 23.0 °C 1013.2 hPa WSW 10 km/h 16 km/h 72% 0.00 mm 0.00 W/m2
20:44 28.0 °C 23.0 °C 1013.3 hPa WSW 10 km/h 16 km/h 72% 0.00 mm 0.00 W/m2
20:49 28.0 °C 23.0 °C 1013.3 hPa WSW 8 km/h 12 km/h 72% 0.00 mm 0.00 W/m2
20:54 28.0 °C 23.0 °C 1013.2 hPa WSW 10 km/h 16 km/h 72% 0.00 mm 0.00 W/m2
20:59 28.0 °C 23.0 °C 1013.1 hPa WNW 6 km/h 12 km/h 72% 0.00 mm 0.00 W/m2
21:04 28.0 °C 23.0 °C 1013.3 hPa WSW 6 km/h 12 km/h 72% 0.00 mm 0.00 W/m2
21:09 28.0 °C 23.0 °C 1013.3 hPa WNW 11 km/h 16 km/h 72% 0.00 mm 0.00 W/m2
21:14 28.0 °C 23.0 °C 1013.4 hPa WSW 14 km/h 16 km/h 72% 0.00 mm 0.00 W/m2
21:19 28.0 °C 23.0 °C 1013.4 hPa NW 7 km/h 12 km/h 72% 0.00 mm 0.00 W/m2
21:24 28.0 °C 23.0 °C 1013.3 hPa ENE 10 km/h 12 km/h 72% 0.00 mm 0.00 W/m2
21:29 28.0 °C 23.0 °C 1013.4 hPa NNW 5 km/h 8 km/h 73% 0.00 mm 0.00 W/m2
21:34 28.0 °C 23.0 °C 1013.5 hPa East 10 km/h 12 km/h 73% 0.00 mm 0.00 W/m2
21:39 28.0 °C 23.0 °C 1013.5 hPa NW 13 km/h 16 km/h 73% 0.00 mm 0.00 W/m2
21:44 28.0 °C 23.0 °C 1013.6 hPa East 10 km/h 12 km/h 73% 0.00 mm 0.00 W/m2
21:46 28.0 °C 23.0 °C 1013.6 hPa ENE 5 km/h 8 km/h 73% 0.00 mm 0.00 W/m2
PIMOHWEATHER Philippines
Compliments of Weather Underground - 2 mb